Time;durP1;ratioP1;P1;durP2;ratioP2;P2;SDS_P1;SDS_P2;PMS_P1;PMS_P2;Temp;Humidity;BMP_temperature;BMP_pressure;BME280_temperature;BME280_humidity;BME280_pressure;Samples;Min_cycle;Max_cycle;Signal;HPM_P1;HPM_P2
2023/07/17 00:00:24;;;;;;;1999.90;999.90;;;14.80;99.90;;;;;;5038141;28;20063;-68
2023/07/17 00:02:49;;;;;;;1999.90;999.90;;;14.80;99.90;;;;;;5032719;28;20041;-68
2023/07/17 00:05:16;;;;;;;1999.90;999.90;;;14.80;99.90;;;;;;5044793;28;20057;-68
2023/07/17 00:07:42;;;;;;;1999.90;999.90;;;14.80;99.90;;;;;;5044527;28;20103;-68
2023/07/17 00:10:10;;;;;;;1999.90;999.90;;;14.90;99.90;;;;;;5039614;28;20045;-68
2023/07/17 00:12:37;;;;;;;1999.90;999.90;;;14.90;99.90;;;;;;5042860;28;20071;-68
2023/07/17 00:15:06;;;;;;;1999.90;999.90;;;15.00;99.90;;;;;;5041860;28;20080;-68
2023/07/17 00:17:33;;;;;;;1999.90;999.90;;;15.00;99.90;;;;;;5045066;28;20048;-68
2023/07/17 00:19:59;;;;;;;1999.90;999.90;;;15.10;99.90;;;;;;5028531;28;20128;-68
2023/07/17 00:22:24;;;;;;;1999.90;999.90;;;15.10;99.90;;;;;;5046919;28;20148;-69
2023/07/17 00:24:53;;;;;;;1999.90;999.90;;;15.10;99.90;;;;;;5044139;28;20545;-69
2023/07/17 00:27:20;;;;;;;1999.90;999.90;;;15.20;99.90;;;;;;5045348;28;20040;-69
2023/07/17 00:29:46;;;;;;;1999.90;999.90;;;15.30;99.90;;;;;;5028564;28;20378;-69
2023/07/17 00:32:12;;;;;;;1999.90;999.90;;;15.40;99.90;;;;;;5045678;28;20049;-69
2023/07/17 00:34:42;;;;;;;1999.90;999.90;;;15.50;99.90;;;;;;5045464;28;20608;-69
2023/07/17 00:37:08;;;;;;;1999.90;999.90;;;15.50;99.90;;;;;;5029096;28;20052;-69
2023/07/17 00:39:34;;;;;;;1999.90;999.90;;;15.60;99.90;;;;;;5042760;28;20048;-69
2023/07/17 00:42:01;;;;;;;1999.90;999.90;;;15.60;99.90;;;;;;5035656;28;20156;-68
2023/07/17 00:44:27;;;;;;;1999.90;999.90;;;15.70;99.90;;;;;;5038732;28;20056;-68
2023/07/17 00:46:54;;;;;;;1999.90;999.90;;;15.70;99.90;;;;;;5045506;28;20056;-69
2023/07/17 00:49:23;;;;;;;1999.90;999.90;;;15.70;99.90;;;;;;5052696;28;20120;-69
2023/07/17 00:51:49;;;;;;;1999.90;999.90;;;15.70;99.90;;;;;;5035414;28;20052;-69
2023/07/17 00:54:16;;;;;;;1999.90;999.90;;;15.60;99.90;;;;;;5031801;28;20041;-69
2023/07/17 00:56:43;;;;;;;1999.90;999.90;;;15.60;99.90;;;;;;5029420;28;20087;-69
2023/07/17 00:59:09;;;;;;;1999.90;999.90;;;15.60;99.90;;;;;;5046939;28;20049;-68
2023/07/17 01:01:35;;;;;;;1999.90;999.90;;;15.50;99.90;;;;;;5043947;28;20090;-68
2023/07/17 01:04:04;;;;;;;1999.90;999.90;;;15.50;99.90;;;;;;5042614;28;20163;-68
2023/07/17 01:06:30;;;;;;;1999.90;999.90;;;15.40;99.90;;;;;;5050038;28;20539;-68
2023/07/17 01:08:58;;;;;;;1999.90;999.90;;;15.40;99.90;;;;;;5044759;28;20466;-68
2023/07/17 01:11:23;;;;;;;1999.90;999.90;;;15.30;99.90;;;;;;5049665;28;20110;-68
2023/07/17 01:13:51;;;;;;;1999.90;999.90;;;15.20;99.90;;;;;;5048589;28;20049;-68
2023/07/17 01:16:17;;;;;;;1999.90;999.90;;;15.20;99.90;;;;;;5044392;28;20102;-69
2023/07/17 01:18:43;;;;;;;1999.90;999.90;;;15.10;99.90;;;;;;5048668;28;20072;-68
2023/07/17 01:21:12;;;;;;;1999.90;999.90;;;15.10;99.90;;;;;;5039475;28;20131;-68
2023/07/17 01:23:38;;;;;;;1999.90;999.90;;;15.10;99.90;;;;;;5045384;28;20086;-68
2023/07/17 01:26:17;;;;;;;1999.90;999.90;;;15.00;99.90;;;;;;5049127;28;20501;-68
2023/07/17 01:28:44;;;;;;;1999.90;999.90;;;15.00;99.90;;;;;;5048094;28;20078;-68
2023/07/17 01:31:10;;;;;;;1999.90;999.90;;;15.00;99.90;;;;;;5043556;28;20104;-68
2023/07/17 01:33:36;;;;;;;1999.90;999.90;;;15.00;99.90;;;;;;5047970;28;20061;-68
2023/07/17 01:36:04;;;;;;;1999.90;999.90;;;14.90;99.90;;;;;;5050872;28;20081;-68
2023/07/17 01:38:31;;;;;;;1999.90;999.90;;;14.90;99.90;;;;;;5049006;28;20047;-68
2023/07/17 01:40:57;;;;;;;1999.90;999.90;;;14.90;99.90;;;;;;5048656;28;20079;-68
2023/07/17 01:43:22;;;;;;;1999.90;999.90;;;14.90;99.90;;;;;;5050104;28;20092;-68
2023/07/17 01:45:48;;;;;;;1999.90;999.90;;;14.90;99.90;;;;;;5048523;28;20456;-68
2023/07/17 01:48:17;;;;;;;1999.90;999.90;;;14.90;99.90;;;;;;5048758;28;20120;-68
2023/07/17 01:50:45;;;;;;;1999.90;999.90;;;14.90;99.90;;;;;;5040774;28;20537;-69
2023/07/17 01:53:11;;;;;;;1999.90;999.90;;;14.90;99.90;;;;;;5047152;28;20072;-69
2023/07/17 01:55:37;;;;;;;1999.90;999.90;;;14.90;99.90;;;;;;5038543;28;20077;-68
2023/07/17 01:58:02;;;;;;;1999.90;999.90;;;14.80;99.90;;;;;;5040885;28;20033;-69
2023/07/17 02:00:28;;;;;;;1999.90;999.90;;;14.80;99.90;;;;;;5045821;28;20060;-68
2023/07/17 02:02:54;;;;;;;1999.90;999.90;;;14.80;99.90;;;;;;5045417;28;20080;-68
2023/07/17 02:05:20;;;;;;;1999.90;999.90;;;14.80;99.90;;;;;;5047141;28;20053;-68
2023/07/17 02:07:46;;;;;;;1999.90;999.90;;;14.80;99.90;;;;;;5045186;28;20460;-69
2023/07/17 02:10:12;;;;;;;1999.90;999.90;;;14.80;99.90;;;;;;5025010;28;20049;-68
2023/07/17 02:12:38;;;;;;;1999.90;999.90;;;14.80;99.90;;;;;;5046265;28;20124;-69
2023/07/17 02:15:08;;;;;;;1999.90;999.90;;;14.80;99.90;;;;;;5046905;28;20540;-68
2023/07/17 02:17:33;;;;;;;1999.90;999.90;;;14.80;99.90;;;;;;5048752;28;20036;-68
2023/07/17 02:19:59;;;;;;;1999.90;999.90;;;14.80;99.90;;;;;;5043625;28;20045;-68
2023/07/17 02:22:24;;;;;;;1999.90;999.90;;;14.70;99.90;;;;;;5016070;28;20052;-69
2023/07/17 02:24:50;;;;;;;1999.90;999.90;;;14.70;99.90;;;;;;5054889;28;20060;-69
2023/07/17 02:27:16;;;;;;;1999.90;999.90;;;14.60;99.90;;;;;;5047794;28;20040;-69
2023/07/17 02:29:42;;;;;;;1999.90;999.90;;;14.60;99.90;;;;;;5041660;28;20762;-69
2023/07/17 02:32:07;;;;;;;1999.90;999.90;;;14.50;99.90;;;;;;5048100;28;20045;-69
2023/07/17 02:34:33;;;;;;;1999.90;999.90;;;14.50;99.90;;;;;;5043781;28;20067;-68
2023/07/17 02:36:58;;;;;;;1999.90;999.90;;;14.50;99.90;;;;;;5043189;28;20041;-68
2023/07/17 02:39:24;;;;;;;1999.90;999.90;;;14.40;99.90;;;;;;5040081;28;20033;-68
2023/07/17 02:41:50;;;;;;;1999.90;999.90;;;14.40;99.90;;;;;;5047570;28;20128;-68
2023/07/17 02:44:15;;;;;;;1999.90;999.90;;;14.40;99.90;;;;;;5046766;28;20029;-68
2023/07/17 02:46:41;;;;;;;1999.90;999.90;;;14.40;99.90;;;;;;5045995;28;20489;-69
2023/07/17 02:49:11;;;;;;;1999.90;999.90;;;14.40;99.90;;;;;;5023786;28;20044;-68
2023/07/17 02:51:37;;;;;;;1999.90;999.90;;;14.40;99.90;;;;;;5041171;28;20045;-68
2023/07/17 02:54:03;;;;;;;1999.90;999.90;;;14.40;99.90;;;;;;5031392;28;20045;-68
2023/07/17 02:56:29;;;;;;;1999.90;999.90;;;14.40;99.90;;;;;;5047026;28;20041;-68
2023/07/17 02:58:54;;;;;;;1999.90;999.90;;;14.40;99.90;;;;;;5028171;28;20037;-68
2023/07/17 03:01:20;;;;;;;1999.90;999.90;;;14.40;99.90;;;;;;5019800;28;20048;-68
2023/07/17 03:03:46;;;;;;;1999.90;999.90;;;14.40;99.90;;;;;;5025120;28;20034;-68
2023/07/17 03:06:12;;;;;;;1999.90;999.90;;;14.40;99.90;;;;;;5033446;28;20092;-69
2023/07/17 03:08:37;;;;;;;1999.90;999.90;;;14.40;99.90;;;;;;5037703;28;20092;-68
2023/07/17 03:11:04;;;;;;;1999.90;999.90;;;14.40;99.90;;;;;;5047293;28;20239;-69
2023/07/17 03:13:30;;;;;;;1999.90;999.90;;;14.40;99.90;;;;;;5045487;28;20078;-68
2023/07/17 03:15:58;;;;;;;1999.90;999.90;;;14.30;99.90;;;;;;5046803;28;20377;-69
2023/07/17 03:18:25;;;;;;;1999.90;999.90;;;14.40;99.90;;;;;;5042786;28;20540;-68
2023/07/17 03:20:51;;;;;;;1999.90;999.90;;;14.40;99.90;;;;;;5028288;28;20098;-68
2023/07/17 03:23:16;;;;;;;1999.90;999.90;;;14.40;99.90;;;;;;5030450;28;20041;-69
2023/07/17 03:25:42;;;;;;;1999.90;999.90;;;14.40;99.90;;;;;;5046433;28;20036;-68
2023/07/17 03:28:08;;;;;;;1999.90;999.90;;;14.40;99.90;;;;;;5045598;28;20049;-68
2023/07/17 03:30:33;;;;;;;1999.90;999.90;;;14.40;99.90;;;;;;5035158;28;20047;-68
2023/07/17 03:32:59;;;;;;;1999.90;999.90;;;14.50;99.90;;;;;;5032853;28;20807;-68
2023/07/17 03:35:24;;;;;;;1999.90;999.90;;;14.50;99.90;;;;;;5035155;28;20044;-68
2023/07/17 03:37:50;;;;;;;1999.90;999.90;;;14.40;99.90;;;;;;5008164;28;20153;-69
2023/07/17 03:40:16;;;;;;;1999.90;999.90;;;14.40;99.90;;;;;;5039614;28;20055;-68
2023/07/17 03:42:41;;;;;;;1999.90;999.90;;;14.40;99.90;;;;;;5046658;28;20044;-69
2023/07/17 03:45:07;;;;;;;1999.90;999.90;;;14.30;99.90;;;;;;5047366;28;20041;-68
2023/07/17 03:47:33;;;;;;;1999.90;999.90;;;14.30;99.90;;;;;;5047346;28;20461;-69
2023/07/17 03:49:58;;;;;;;1999.90;999.90;;;14.30;99.90;;;;;;5036214;28;20087;-68
2023/07/17 03:52:24;;;;;;;1999.90;999.90;;;14.20;99.90;;;;;;5045384;28;20048;-69
2023/07/17 03:54:50;;;;;;;1999.90;999.90;;;14.20;99.90;;;;;;5045362;28;20049;-69
2023/07/17 03:57:15;;;;;;;1999.90;999.90;;;14.20;99.90;;;;;;5048133;28;20045;-68
2023/07/17 03:59:53;;;;;;;1999.90;999.90;;;14.20;99.90;;;;;;5042412;28;20579;-68
2023/07/17 04:02:19;;;;;;;1999.90;999.90;;;14.20;99.90;;;;;;5037831;28;20188;-68
2023/07/17 04:04:45;;;;;;;1999.90;999.90;;;14.20;99.90;;;;;;5045075;28;20509;-69
2023/07/17 04:07:11;;;;;;;1999.90;999.90;;;14.10;99.90;;;;;;5044920;28;20055;-69
2023/07/17 04:09:37;;;;;;;1999.90;999.90;;;14.10;99.90;;;;;;5026369;28;20047;-68
2023/07/17 04:12:04;;;;;;;1999.90;999.90;;;14.10;99.90;;;;;;5037792;28;20075;-68
2023/07/17 04:14:34;;;;;;;1999.90;999.90;;;14.10;99.90;;;;;;5045836;28;20499;-68
2023/07/17 04:17:00;;;;;;;1999.90;999.90;;;14.10;99.90;;;;;;5057472;28;20144;-68
2023/07/17 04:19:29;;;;;;;1999.90;999.90;;;14.10;99.90;;;;;;5038598;28;20041;-69
2023/07/17 04:21:55;;;;;;;1999.90;999.90;;;14.20;99.90;;;;;;5026523;28;20404;-69
2023/07/17 04:24:23;;;;;;;1999.90;999.90;;;14.20;99.90;;;;;;5044705;28;20041;-69
2023/07/17 04:26:50;;;;;;;1999.90;999.90;;;14.20;99.90;;;;;;5044476;28;20091;-68
2023/07/17 04:29:16;;;;;;;1999.90;999.90;;;14.30;99.90;;;;;;5041932;28;20041;-68
2023/07/17 04:31:42;;;;;;;1999.90;999.90;;;14.30;99.90;;;;;;5037491;28;20131;-69
2023/07/17 04:34:08;;;;;;;1999.90;999.90;;;14.30;99.90;;;;;;5042490;28;20140;-69
2023/07/17 04:36:33;;;;;;;1999.90;999.90;;;14.40;99.90;;;;;;5035425;28;20042;-68
2023/07/17 04:38:59;;;;;;;1999.90;999.90;;;14.40;99.90;;;;;;5050614;28;20048;-68
2023/07/17 04:41:25;;;;;;;1999.90;999.90;;;14.40;99.90;;;;;;5040217;28;20044;-68
2023/07/17 04:43:50;;;;;;;1999.90;999.90;;;14.50;99.90;;;;;;5044159;28;20037;-69
2023/07/17 04:46:16;;;;;;;1999.90;999.90;;;14.50;99.90;;;;;;5045012;28;20041;-69
2023/07/17 04:48:41;;;;;;;1999.90;999.90;;;14.60;99.90;;;;;;5050205;28;20041;-68
2023/07/17 04:51:07;;;;;;;1999.90;999.90;;;14.60;99.90;;;;;;5023326;28;20127;-69
2023/07/17 04:53:34;;;;;;;1999.90;999.90;;;14.70;99.90;;;;;;5046352;28;20044;-69
2023/07/17 04:55:59;;;;;;;1999.90;999.90;;;14.80;99.90;;;;;;5045588;28;20404;-69
2023/07/17 04:58:26;;;;;;;1999.90;999.90;;;14.80;99.90;;;;;;5026599;28;20037;-68
2023/07/17 05:00:58;;;;;;;1999.90;999.90;;;14.90;99.90;;;;;;5035679;28;20041;-68
2023/07/17 05:03:23;;;;;;;1999.90;999.90;;;14.90;99.90;;;;;;5030023;28;20045;-68
2023/07/17 05:05:50;;;;;;;1999.90;999.90;;;15.00;99.90;;;;;;5030822;28;20060;-68
2023/07/17 05:08:17;;;;;;;1999.90;999.90;;;15.10;99.90;;;;;;5040663;28;20835;-69
2023/07/17 05:10:43;;;;;;;1999.90;999.90;;;15.10;99.90;;;;;;5029161;28;20059;-69
2023/07/17 05:13:09;;;;;;;1999.90;999.90;;;15.20;99.90;;;;;;5034235;28;20037;-68
2023/07/17 05:15:34;;;;;;;1999.90;999.90;;;15.30;99.90;;;;;;5045344;28;20044;-68
2023/07/17 05:18:00;;;;;;;1999.90;999.90;;;15.30;99.90;;;;;;5026313;28;20041;-69
2023/07/17 05:20:26;;;;;;;1999.90;999.90;;;15.50;99.90;;;;;;5040700;28;20494;-69
2023/07/17 05:22:51;;;;;;;1999.90;999.90;;;15.50;99.90;;;;;;5031231;28;20057;-69
2023/07/17 05:25:17;;;;;;;1999.90;999.90;;;15.60;99.90;;;;;;5043668;28;20057;-69
2023/07/17 05:27:42;;;;;;;1999.90;999.90;;;15.70;99.90;;;;;;5061000;28;20075;-69
2023/07/17 05:30:08;;;;;;;1999.90;999.90;;;15.80;99.90;;;;;;5044332;28;20048;-69
2023/07/17 05:32:34;;;;;;;1999.90;999.90;;;15.90;99.90;;;;;;5037315;28;20052;-69
2023/07/17 05:35:00;;;;;;;1999.90;999.90;;;16.00;99.90;;;;;;5045148;28;20035;-69
2023/07/17 05:37:25;;;;;;;1999.90;999.90;;;16.20;99.90;;;;;;5047805;28;20429;-69
2023/07/17 05:39:51;;;;;;;1999.90;999.90;;;16.40;99.90;;;;;;5047751;28;20063;-69
2023/07/17 05:42:17;;;;;;;1999.90;999.90;;;16.70;99.90;;;;;;5048402;28;20143;-69
2023/07/17 05:44:42;;;;;;;1999.90;999.90;;;16.80;99.90;;;;;;5045574;28;20045;-68
2023/07/17 05:47:08;;;;;;;1999.90;999.90;;;16.80;99.90;;;;;;5046979;28;20041;-69
2023/07/17 05:49:34;;;;;;;1999.90;999.90;;;16.70;99.90;;;;;;5041865;28;20493;-69
2023/07/17 05:52:00;;;;;;;1999.90;999.90;;;16.60;99.90;;;;;;5065029;28;20129;-69
2023/07/17 05:54:25;;;;;;;1999.90;999.90;;;16.70;99.90;;;;;;5047973;28;20033;-69
2023/07/17 05:56:51;;;;;;;1999.90;999.90;;;16.80;99.90;;;;;;5048624;28;20120;-68
2023/07/17 05:59:16;;;;;;;1999.90;999.90;;;16.80;99.90;;;;;;5026783;28;20064;-69
2023/07/17 06:01:42;;;;;;;1999.90;999.90;;;16.90;99.90;;;;;;5027026;28;20118;-69
2023/07/17 06:04:08;;;;;;;1999.90;999.90;;;17.00;99.90;;;;;;5057611;28;20064;-68
2023/07/17 06:06:34;;;;;;;1999.90;999.90;;;17.10;99.90;;;;;;5045462;28;20065;-69
2023/07/17 06:09:04;;;;;;;1999.90;999.90;;;17.20;99.90;;;;;;5050094;28;20041;-69
2023/07/17 06:11:30;;;;;;;1999.90;999.90;;;17.30;99.90;;;;;;5047316;28;20132;-68
2023/07/17 06:13:55;;;;;;;1999.90;999.90;;;17.40;99.90;;;;;;5046731;28;20151;-70
2023/07/17 06:16:21;;;;;;;1999.90;999.90;;;17.70;99.90;;;;;;5046652;28;20041;-70
2023/07/17 06:18:47;;;;;;;1999.90;999.90;;;18.00;99.90;;;;;;5030854;28;20033;-70
2023/07/17 06:21:12;;;;;;;1999.90;999.90;;;18.10;99.90;;;;;;5045675;28;20560;-70
2023/07/17 06:23:38;;;;;;;1999.90;999.90;;;18.10;99.90;;;;;;5046112;28;20049;-69
2023/07/17 06:26:04;;;;;;;1999.90;999.90;;;18.20;99.90;;;;;;5039025;28;20087;-69
2023/07/17 06:28:30;;;;;;;1999.90;999.90;;;18.30;99.90;;;;;;5047445;28;20127;-70
2023/07/17 06:30:56;;;;;;;1999.90;999.90;;;18.60;99.90;;;;;;5030628;28;20061;-70
2023/07/17 06:33:25;;;;;;;1999.90;999.90;;;18.80;99.90;;;;;;5045653;28;20055;-70
2023/07/17 06:35:51;;;;;;;1999.90;999.90;;;18.90;99.90;;;;;;5039671;28;20489;-69
2023/07/17 06:38:16;;;;;;;1999.90;999.90;;;19.20;99.90;;;;;;5047704;28;20040;-71
2023/07/17 06:40:42;;;;;;;339.27;323.55;;;19.80;99.90;;;;;;5047228;28;20136;-70
2023/07/17 06:43:09;;;;;;;325.55;310.35;;;20.50;99.90;;;;;;5046635;28;20121;-70
2023/07/17 06:45:35;;;;;;;401.95;381.48;;;21.00;99.90;;;;;;5041493;28;20047;-70
2023/07/17 06:48:00;;;;;;;345.15;328.67;;;21.40;99.90;;;;;;5044875;28;20417;-71
2023/07/17 06:50:26;;;;;;;412.60;391.73;;;21.40;99.90;;;;;;5042297;28;20163;-70
2023/07/17 06:52:51;;;;;;;141.43;134.98;;;21.50;99.90;;;;;;5044444;28;20056;-70
2023/07/17 06:55:17;;;;;;;202.93;192.75;;;21.10;99.90;;;;;;5047541;28;20049;-71
2023/07/17 06:57:43;;;;;;;199.63;190.13;;;20.50;99.90;;;;;;5042664;28;20044;-71
2023/07/17 07:00:09;;;;;;;204.90;195.02;;;19.80;99.90;;;;;;5043172;28;20116;-70
2023/07/17 07:02:35;;;;;;;273.75;261.55;;;19.20;99.90;;;;;;5041669;28;20037;-71
2023/07/17 07:05:01;;;;;;;300.90;287.23;;;18.80;99.90;;;;;;5043000;28;20429;-70
2023/07/17 07:07:26;;;;;;;318.45;304.10;;;18.50;99.90;;;;;;5041440;28;20048;-71
2023/07/17 07:09:52;;;;;;;312.88;298.95;;;18.20;99.90;;;;;;5020721;28;20044;-70
2023/07/17 07:12:18;;;;;;;328.85;313.88;;;17.90;99.90;;;;;;5035001;28;20041;-70
2023/07/17 07:14:43;;;;;;;364.48;346.17;;;17.60;99.90;;;;;;5045479;28;20555;-70
2023/07/17 07:17:09;;;;;;;1999.90;999.90;;;17.30;99.90;;;;;;5044125;28;20044;-72
2023/07/17 07:19:35;;;;;;;1999.90;999.90;;;17.00;99.90;;;;;;5018696;28;20768;-72
2023/07/17 07:22:00;;;;;;;1999.90;999.90;;;16.70;99.90;;;;;;5058739;28;20481;-71
2023/07/17 07:24:26;;;;;;;1999.90;999.90;;;16.40;99.90;;;;;;5045857;28;20045;-71
2023/07/17 07:26:52;;;;;;;1999.90;999.90;;;16.20;99.90;;;;;;5045485;28;20060;-71
2023/07/17 07:29:17;;;;;;;1999.90;999.90;;;16.20;99.90;;;;;;5042535;28;20168;-71
2023/07/17 07:31:43;;;;;;;1999.90;999.90;;;16.20;99.90;;;;;;5027091;28;20044;-71
2023/07/17 07:34:09;;;;;;;1999.90;999.90;;;16.20;99.90;;;;;;5024063;28;20386;-71
2023/07/17 07:36:34;;;;;;;1999.90;999.90;;;16.70;99.90;;;;;;5041275;28;20041;-71
2023/07/17 07:39:00;;;;;;;1999.90;999.90;;;17.80;99.90;;;;;;5029052;28;20033;-71
2023/07/17 07:41:25;;;;;;;1999.90;999.90;;;18.90;99.90;;;;;;5046196;28;20055;-72
2023/07/17 07:43:51;;;;;;;1999.90;999.90;;;18.90;99.90;;;;;;5015541;28;20049;-71
2023/07/17 07:46:17;;;;;;;1999.90;999.90;;;19.20;99.90;;;;;;5041931;28;20037;-71
2023/07/17 07:48:42;;;;;;;1999.90;999.90;;;19.30;99.90;;;;;;5038196;28;20041;-71
2023/07/17 07:51:08;;;;;;;1999.90;999.90;;;19.10;99.90;;;;;;5020262;28;20417;-71
2023/07/17 07:53:33;;;;;;;1999.90;999.90;;;18.90;99.90;;;;;;5046247;28;20037;-71
2023/07/17 07:56:00;;;;;;;1999.90;999.90;;;18.60;99.90;;;;;;5041830;28;20576;-71
2023/07/17 07:58:26;;;;;;;1999.90;999.90;;;18.40;99.90;;;;;;5041608;28;20048;-71
2023/07/17 08:00:53;;;;;;;1999.90;999.90;;;18.30;99.90;;;;;;5040589;28;20040;-71
2023/07/17 08:03:18;;;;;;;1999.90;999.90;;;18.60;99.90;;;;;;5044219;28;20083;-71
2023/07/17 08:05:44;;;;;;;1999.90;999.90;;;18.80;99.90;;;;;;5044818;28;20142;-71
2023/07/17 08:08:10;;;;;;;1999.90;999.90;;;18.90;99.90;;;;;;5038436;28;20176;-70
2023/07/17 08:10:37;;;;;;;1999.90;999.90;;;19.20;99.90;;;;;;5039258;28;20495;-70
2023/07/17 08:13:04;;;;;;;1999.90;999.90;;;19.50;99.90;;;;;;5060518;28;20420;-69
2023/07/17 08:15:30;;;;;;;1171.68;663.47;;;19.50;99.90;;;;;;5041001;28;20384;-70
2023/07/17 08:17:56;;;;;;;333.17;317.17;;;19.50;99.90;;;;;;5044906;28;20041;-70
2023/07/17 08:20:21;;;;;;;1999.90;999.90;;;19.50;99.90;;;;;;5042767;28;20051;-70
2023/07/17 08:22:48;;;;;;;290.77;277.23;;;19.50;99.90;;;;;;5041063;28;20050;-70
2023/07/17 08:25:14;;;;;;;262.30;249.90;;;19.40;99.90;;;;;;5045214;28;20053;-70
2023/07/17 08:27:39;;;;;;;342.85;324.98;;;19.40;99.90;;;;;;5045009;28;20043;-70
2023/07/17 08:30:06;;;;;;;256.40;243.95;;;19.40;99.90;;;;;;5045707;28;20041;-70
2023/07/17 08:32:31;;;;;;;238.65;227.98;;;19.60;99.90;;;;;;5042493;28;20041;-70
2023/07/17 08:34:57;;;;;;;180.75;172.65;;;19.90;99.90;;;;;;5041139;28;20110;-70
2023/07/17 08:37:22;;;;;;;214.07;203.45;;;20.10;99.90;;;;;;5045301;28;20047;-71
2023/07/17 08:39:48;;;;;;;260.92;247.80;;;20.30;99.90;;;;;;5044858;28;20408;-70
2023/07/17 08:42:14;;;;;;;341.73;322.73;;;20.30;99.90;;;;;;5040138;28;20041;-70
2023/07/17 08:44:40;;;;;;;438.70;416.77;;;20.60;99.90;;;;;;5018245;28;20127;-69
2023/07/17 08:47:08;;;;;;;383.75;363.98;;;21.00;99.90;;;;;;5041867;28;20055;-69
2023/07/17 08:49:35;;;;;;;412.58;391.67;;;21.40;99.90;;;;;;5043379;28;20386;-69
2023/07/17 08:52:02;;;;;;;495.48;469.38;;;21.60;99.90;;;;;;5044917;28;20049;-70
2023/07/17 08:54:28;;;;;;;691.60;649.53;;;21.70;99.90;;;;;;5055445;28;20401;-70
2023/07/17 08:56:55;;;;;;;655.75;616.50;;;21.90;99.90;;;;;;5037537;28;20041;-70
2023/07/17 08:59:21;;;;;;;674.67;633.78;;;22.30;99.90;;;;;;5057084;28;20127;-71
2023/07/17 09:01:49;;;;;;;716.75;672.55;;;22.40;99.90;;;;;;5034526;28;20033;-70
2023/07/17 09:04:16;;;;;;;692.75;650.38;;;22.40;99.90;;;;;;5029036;28;20044;-70
2023/07/17 09:06:41;;;;;;;706.13;662.53;;;22.40;99.90;;;;;;5044809;28;20056;-71
2023/07/17 09:09:09;;;;;;;666.97;626.80;;;22.20;99.90;;;;;;5040059;28;20063;-70
2023/07/17 09:11:35;;;;;;;669.78;629.45;;;21.90;99.90;;;;;;5031622;28;20072;-70
2023/07/17 09:14:01;;;;;;;634.08;596.78;;;21.80;99.90;;;;;;5042581;28;20055;-71
2023/07/17 09:16:26;;;;;;;675.65;634.97;;;21.50;99.90;;;;;;5024388;28;20041;-70
2023/07/17 09:18:53;;;;;;;659.60;619.72;;;21.40;99.90;;;;;;5060348;28;20468;-71
2023/07/17 09:21:24;;;;;;;624.40;588.08;;;21.50;99.90;;;;;;5048989;28;20036;-70
2023/07/17 09:23:55;;;;;;;656.88;617.70;;;21.90;99.90;;;;;;5048780;28;20408;-70
2023/07/17 09:26:22;;;;;;;649.60;611.15;;;22.30;99.90;;;;;;5030875;28;20404;-70
2023/07/17 09:28:52;;;;;;;636.10;598.70;;;22.60;99.80;;;;;;5045101;28;20064;-69
2023/07/17 09:31:31;;;;;;;642.95;605.42;;;22.80;98.50;;;;;;5048015;28;20127;-70
2023/07/17 09:34:04;;;;;;;516.03;486.20;;;22.80;98.20;;;;;;5046161;28;20036;-71
2023/07/17 09:36:29;;;;;;;682.05;640.38;;;22.80;96.60;;;;;;5048262;28;20073;-70
2023/07/17 09:38:57;;;;;;;670.72;630.70;;;22.80;98.60;;;;;;5045657;28;20107;-70
2023/07/17 09:41:26;;;;;;;609.30;574.10;;;23.10;99.60;;;;;;5032317;28;20067;-70
2023/07/17 09:44:03;;;;;;;422.77;400.30;;;23.50;98.90;;;;;;5048403;28;20056;-70
2023/07/17 09:46:30;;;;;;;509.10;481.35;;;23.60;94.80;;;;;;5041403;28;20084;-70
2023/07/17 09:48:57;;;;;;;506.73;479.65;;;23.40;95.60;;;;;;5040319;28;20386;-70
2023/07/17 09:51:23;;;;;;;549.40;519.10;;;23.20;95.50;;;;;;5043771;28;20099;-70
2023/07/17 09:53:50;;;;;;;561.67;530.78;;;22.90;96.30;;;;;;5036427;28;20409;-70
2023/07/17 09:56:16;;;;;;;629.50;592.78;;;23.00;97.00;;;;;;5018486;28;20052;-70
2023/07/17 09:58:50;;;;;;;585.92;552.63;;;23.30;97.60;;;;;;5037796;28;20041;-70
2023/07/17 10:01:18;;;;;;;638.15;599.75;;;23.50;96.20;;;;;;5017017;28;20041;-69
2023/07/17 10:03:48;;;;;;;454.30;429.88;;;23.60;96.70;;;;;;5047405;28;20037;-69
2023/07/17 10:06:18;;;;;;;420.55;399.23;;;23.60;94.10;;;;;;5047061;28;20086;-69
2023/07/17 10:08:46;;;;;;;317.33;301.42;;;23.40;94.40;;;;;;5049864;28;20535;-70
2023/07/17 10:11:14;;;;;;;559.22;526.63;;;23.30;93.60;;;;;;5055914;28;20053;-70
2023/07/17 10:13:40;;;;;;;499.05;471.35;;;23.30;95.50;;;;;;5036860;28;20045;-69
2023/07/17 10:16:07;;;;;;;505.90;478.73;;;23.40;95.00;;;;;;5047304;28;20044;-70
2023/07/17 10:18:33;;;;;;;429.25;407.50;;;23.60;95.40;;;;;;5030952;28;20500;-70
2023/07/17 10:21:01;;;;;;;94.35;90.10;;;23.80;95.00;;;;;;5035461;28;20041;-70
2023/07/17 10:23:29;;;;;;;237.65;226.27;;;23.80;92.90;;;;;;5047360;28;20044;-71
2023/07/17 10:26:12;;;;;;;150.75;143.82;;;23.90;91.80;;;;;;5045307;28;20044;-71
2023/07/17 10:28:38;;;;;;;291.05;276.75;;;23.70;91.90;;;;;;5063552;28;20043;-70
2023/07/17 10:31:23;;;;;;;299.92;285.25;;;23.70;92.60;;;;;;5046871;28;20128;-70
2023/07/17 10:33:58;;;;;;;144.80;137.85;;;23.80;91.70;;;;;;5027584;28;20044;-69
2023/07/17 10:36:40;;;;;;;83.50;79.63;;;23.70;92.00;;;;;;5041443;28;20037;-70
2023/07/17 10:39:07;;;;;;;135.68;129.10;;;23.70;90.70;;;;;;5041500;28;20044;-71
2023/07/17 10:41:35;;;;;;;100.43;95.93;;;23.50;91.50;;;;;;5047465;28;20059;-70
2023/07/17 10:44:03;;;;;;;174.10;166.15;;;23.30;91.40;;;;;;5040983;28;20037;-71
2023/07/17 10:46:32;;;;;;;188.48;179.57;;;23.00;90.20;;;;;;5040700;28;20519;-70
2023/07/17 10:49:10;;;;;;;303.85;288.52;;;22.80;90.70;;;;;;5026623;28;20048;-68
2023/07/17 10:51:46;;;;;;;300.70;285.83;;;22.60;92.00;;;;;;5024027;28;20049;-71
2023/07/17 10:54:13;;;;;;;291.38;277.02;;;22.80;92.60;;;;;;5030059;28;20135;-70
2023/07/17 10:56:39;;;;;;;239.60;228.90;;;22.90;90.90;;;;;;5047264;28;20059;-70
2023/07/17 10:59:05;;;;;;;238.27;226.95;;;23.00;91.80;;;;;;5025435;28;20037;-69
2023/07/17 11:01:31;;;;;;;462.23;437.23;;;23.10;91.30;;;;;;5039856;28;20132;-70
2023/07/17 11:03:56;;;;;;;123.00;117.40;;;23.10;91.30;;;;;;5047447;28;20037;-71
2023/07/17 11:06:25;;;;;;;201.90;192.45;;;23.20;90.90;;;;;;5038827;28;20064;-70
2023/07/17 11:08:52;;;;;;;361.70;344.20;;;23.30;89.50;;;;;;5063824;28;20590;-70
2023/07/17 11:11:18;;;;;;;311.52;295.38;;;23.30;91.40;;;;;;5046419;28;20045;-70
2023/07/17 11:13:49;;;;;;;379.42;354.38;;;23.60;90.10;;;;;;5046498;28;20404;-70
2023/07/17 11:16:16;;;;;;;160.73;152.77;;;23.80;90.60;;;;;;5045783;28;20036;-70
2023/07/17 11:19:05;;;;;;;147.95;141.15;;;24.00;88.20;;;;;;5032607;28;20047;-70
2023/07/17 11:21:32;;;;;;;259.30;246.32;;;24.00;88.80;;;;;;5063670;28;20045;-69
2023/07/17 11:23:58;;;;;;;209.98;199.75;;;24.20;89.20;;;;;;5044515;28;20071;-69
2023/07/17 11:26:28;;;;;;;127.00;121.50;;;24.10;89.30;;;;;;5045595;28;20408;-71
2023/07/17 11:28:56;;;;;;;186.10;177.20;;;23.80;88.90;;;;;;5027052;28;20173;-70
2023/07/17 11:31:26;;;;;;;128.18;120.38;;;23.40;86.50;;;;;;5039597;28;20048;-71
2023/07/17 11:33:54;;;;;;;541.72;511.27;;;22.90;86.90;;;;;;5033716;28;20047;-70
2023/07/17 11:36:20;;;;;;;69.95;66.25;;;22.90;90.90;;;;;;5040224;28;20036;-70
2023/07/17 11:38:45;;;;;;;194.00;184.55;;;23.30;90.20;;;;;;5046083;28;20032;-70
2023/07/17 11:41:11;;;;;;;416.77;395.40;;;23.70;89.40;;;;;;5040777;28;20425;-70
2023/07/17 11:43:37;;;;;;;69.10;65.80;;;23.90;91.00;;;;;;5040350;28;20051;-70
2023/07/17 11:46:06;;;;;;;185.15;176.55;;;24.10;88.00;;;;;;5047198;28;20047;-70
2023/07/17 11:48:33;;;;;;;56.45;53.63;;;24.10;89.10;;;;;;5041847;28;20067;-71
2023/07/17 11:51:04;;;;;;;153.82;146.05;;;23.90;85.20;;;;;;5040757;28;20037;-71
2023/07/17 11:53:31;;;;;;;94.57;89.97;;;23.70;86.70;;;;;;5033307;28;20381;-71
2023/07/17 11:55:59;;;;;;;70.80;67.20;;;23.70;87.60;;;;;;5042280;28;20103;-70
2023/07/17 11:58:29;;;;;;;204.60;193.70;;;23.80;88.60;;;;;;5043650;28;20048;-71
2023/07/17 12:00:56;;;;;;;401.15;380.95;;;23.70;87.40;;;;;;5026535;28;20564;-71